UAL1992 KEWR-KIAD
Flight info
| Callsign | UAL1992 |
|---|---|
| Flight time | N/A |
| Altitude | 32000 |
| Route | PARKE HYPER9 |
| Aircraft | A319/M-SDE3FGHIRWY/LB1 |
Departure
| Time | 2026-04-24 17:05 |
|---|---|
| Airport | Newark Liberty International Airport (KEWR) |
Arrival
| Time | N/A |
|---|---|
| Airport | Washington Dulles International Airport (KIAD) |
| Time | Latitude | Longitude | Altitude | Speed | Heading |
|---|---|---|---|---|---|
| 2026-04-24 16:37 | 40.69389 | -74.17165 | 22 ft | 0 kts | 267° |
| 2026-04-24 16:53 | 40.69389 | -74.17156 | 22 ft | 2 kts | 267° |
| 2026-04-24 16:53 | 40.69390 | -74.17130 | 22 ft | 2 kts | 266° |
| 2026-04-24 16:53 | 40.69391 | -74.17121 | 22 ft | 0 kts | 264° |
| 2026-04-24 16:54 | 40.69392 | -74.17110 | 22 ft | 3 kts | 249° |
| 2026-04-24 16:54 | 40.69399 | -74.17087 | 26 ft | 3 kts | 249° |
| 2026-04-24 16:55 | 40.69409 | -74.17069 | 23 ft | 3 kts | 183° |
| 2026-04-24 16:55 | 40.69416 | -74.17069 | 24 ft | 0 kts | 183° |
| 2026-04-24 16:58 | 40.69405 | -74.17070 | 23 ft | 5 kts | 184° |
| 2026-04-24 16:58 | 40.69341 | -74.17088 | 22 ft | 13 kts | 198° |
| 2026-04-24 16:59 | 40.69242 | -74.17142 | 22 ft | 17 kts | 204° |
| 2026-04-24 16:59 | 40.69125 | -74.17216 | 22 ft | 21 kts | 212° |
| 2026-04-24 16:59 | 40.68818 | -74.17413 | 22 ft | 27 kts | 207° |
| 2026-04-24 17:00 | 40.68643 | -74.17520 | 23 ft | 29 kts | 205° |
| 2026-04-24 17:00 | 40.68280 | -74.17756 | 22 ft | 25 kts | 206° |
| 2026-04-24 17:00 | 40.68120 | -74.17856 | 24 ft | 24 kts | 205° |
| 2026-04-24 17:01 | 40.67803 | -74.18058 | 24 ft | 10 kts | 206° |
| 2026-04-24 17:01 | 40.67729 | -74.18107 | 24 ft | 14 kts | 206° |
| 2026-04-24 17:02 | 40.67603 | -74.18048 | 22 ft | 9 kts | 132° |
| 2026-04-24 17:02 | 40.67599 | -74.18042 | 22 ft | 0 kts | 132° |
| 2026-04-24 17:03 | 40.67599 | -74.18041 | 22 ft | 1 kts | 132° |
| 2026-04-24 17:03 | 40.67577 | -74.18006 | 24 ft | 10 kts | 125° |
| 2026-04-24 17:04 | 40.67607 | -74.17900 | 23 ft | 19 kts | 25° |
| 2026-04-24 17:04 | 40.68609 | -74.17266 | 26 ft | 139 kts | 26° |
| 2026-04-24 17:04 | 40.69508 | -74.16672 | 584 ft | 143 kts | 27° |
| 2026-04-24 17:05 | 40.70304 | -74.15883 | 1248 ft | 144 kts | 40° |
| 2026-04-24 17:05 | 40.71042 | -74.14966 | 1856 ft | 149 kts | 41° |
| 2026-04-24 17:05 | 40.72784 | -74.12767 | 2719 ft | 198 kts | 42° |
| 2026-04-24 17:06 | 40.73843 | -74.11441 | 3277 ft | 222 kts | 41° |
| 2026-04-24 17:06 | 40.76577 | -74.08992 | 4792 ft | 249 kts | 10° |
| 2026-04-24 17:06 | 40.78296 | -74.08799 | 5940 ft | 241 kts | 350° |
| 2026-04-24 17:07 | 40.79364 | -74.09113 | 6708 ft | 237 kts | 338° |
| 2026-04-24 17:07 | 40.81191 | -74.10655 | 8128 ft | 235 kts | 315° |
| 2026-04-24 17:07 | 40.82165 | -74.14770 | 10138 ft | 259 kts | 270° |
| 2026-04-24 17:08 | 40.81433 | -74.19815 | 11040 ft | 296 kts | 268° |
| 2026-04-24 17:08 | 40.81046 | -74.22519 | 11760 ft | 303 kts | 267° |
| 2026-04-24 17:08 | 40.80647 | -74.25271 | 12517 ft | 308 kts | 267° |
| 2026-04-24 17:09 | 40.79820 | -74.30909 | 14018 ft | 317 kts | 267° |
| 2026-04-24 17:09 | 40.78974 | -74.36673 | 15444 ft | 322 kts | 266° |
| 2026-04-24 17:10 | 40.78551 | -74.39549 | 16131 ft | 325 kts | 265° |
| 2026-04-24 17:10 | 40.77237 | -74.48442 | 18231 ft | 333 kts | 265° |
| 2026-04-24 17:11 | 40.75881 | -74.57592 | 19972 ft | 344 kts | 265° |
| 2026-04-24 17:12 | 40.73496 | -74.73618 | 21865 ft | 381 kts | 265° |